createdAt,value
2022-09-29T00:01:50.697Z,10.57
2022-09-29T00:04:18.850Z,10.10
2022-09-29T00:06:47.066Z,11.50
2022-09-29T00:09:15.265Z,10.70
2022-09-29T00:11:44.793Z,14.63
2022-09-29T00:14:12.920Z,11.07
2022-09-29T00:16:41.150Z,10.80
2022-09-29T00:19:09.532Z,9.77
2022-09-29T00:21:37.689Z,10.37
2022-09-29T00:24:06.030Z,11.63
2022-09-29T00:26:34.248Z,12.43
2022-09-29T00:29:04.189Z,12.03
2022-09-29T00:31:34.849Z,13.03
2022-09-29T00:34:03.047Z,12.83
2022-09-29T00:36:31.311Z,13.10
2022-09-29T00:39:00.792Z,14.10
2022-09-29T00:41:32.559Z,16.63
2022-09-29T00:44:05.552Z,14.47
2022-09-29T00:46:41.236Z,13.90
2022-09-29T00:49:18.458Z,14.17
2022-09-29T00:51:52.765Z,13.60
2022-09-29T00:54:21.820Z,13.60
2022-09-29T00:56:51.669Z,14.43
2022-09-29T00:59:28.117Z,14.00
2022-09-29T01:01:56.587Z,39.33
2022-09-29T01:04:25.611Z,13.40
2022-09-29T01:06:57.704Z,16.80
2022-09-29T01:09:31.633Z,15.30
2022-09-29T01:12:03.127Z,15.43
2022-09-29T01:14:34.952Z,16.73
2022-09-29T01:17:03.305Z,18.37
2022-09-29T01:19:44.165Z,17.57
2022-09-29T01:22:24.390Z,18.37
2022-09-29T01:25:12.526Z,15.07
2022-09-29T01:28:21.371Z,17.47
2022-09-29T01:31:16.086Z,16.80
2022-09-29T01:33:52.018Z,16.30
2022-09-29T01:36:31.113Z,16.80
2022-09-29T01:39:13.679Z,15.40
2022-09-29T01:41:49.772Z,15.90
2022-09-29T01:44:25.630Z,14.37
2022-09-29T01:47:00.122Z,15.33
2022-09-29T01:49:34.651Z,13.77
2022-09-29T01:52:08.012Z,15.63
2022-09-29T01:54:45.313Z,16.67
2022-09-29T01:57:19.403Z,25.27
2022-09-29T01:59:52.205Z,18.93
2022-09-29T02:02:29.290Z,17.77
2022-09-29T02:05:02.572Z,18.27
2022-09-29T02:07:35.941Z,17.30
2022-09-29T02:10:08.659Z,17.63
2022-09-29T02:12:39.394Z,18.30
2022-09-29T02:15:11.163Z,18.60
2022-09-29T02:17:44.868Z,21.03
2022-09-29T02:20:14.223Z,19.30
2022-09-29T02:22:43.351Z,37.27
2022-09-29T02:25:15.244Z,21.83
2022-09-29T02:27:43.719Z,20.70
2022-09-29T02:30:13.653Z,21.00
2022-09-29T02:32:43.177Z,20.97
2022-09-29T02:35:14.494Z,20.70
2022-09-29T02:37:55.568Z,20.73
2022-09-29T02:40:43.324Z,20.57
2022-09-29T02:43:32.712Z,21.47
2022-09-29T02:46:18.446Z,21.30
2022-09-29T02:49:08.660Z,21.90
2022-09-29T02:51:42.045Z,19.67
2022-09-29T02:54:27.100Z,22.77
2022-09-29T02:57:09.870Z,22.40
2022-09-29T02:59:47.005Z,22.43
2022-09-29T03:02:17.430Z,21.27
2022-09-29T03:04:46.920Z,23.40
2022-09-29T03:07:15.083Z,20.67
2022-09-29T03:09:43.226Z,21.00
2022-09-29T03:12:11.325Z,20.40
2022-09-29T03:14:39.451Z,21.70
2022-09-29T03:17:07.583Z,18.90
2022-09-29T03:19:35.707Z,21.57
2022-09-29T03:22:05.483Z,20.73
2022-09-29T03:24:33.584Z,20.53
2022-09-29T03:27:01.735Z,19.40
2022-09-29T03:29:29.998Z,22.67
2022-09-29T03:31:59.880Z,21.57
2022-09-29T03:34:28.235Z,25.20
2022-09-29T03:36:57.871Z,23.57
2022-09-29T03:39:27.997Z,22.67
2022-09-29T03:41:56.766Z,21.67
2022-09-29T03:44:25.030Z,24.27
2022-09-29T03:46:53.132Z,25.00
2022-09-29T03:49:21.396Z,25.67
2022-09-29T03:51:49.711Z,27.80
2022-09-29T03:54:17.862Z,23.63
2022-09-29T03:56:47.346Z,21.70
2022-09-29T03:59:15.768Z,25.83
2022-09-29T04:01:44.082Z,26.80
2022-09-29T04:04:12.525Z,26.40
2022-09-29T04:06:40.658Z,26.00
2022-09-29T04:09:08.807Z,24.60
2022-09-29T04:11:37.515Z,25.20
2022-09-29T04:14:07.307Z,25.20
2022-09-29T04:16:35.682Z,27.50
2022-09-29T04:19:04.214Z,24.93
2022-09-29T04:21:32.477Z,27.37
2022-09-29T04:24:00.620Z,27.03
2022-09-29T04:26:28.804Z,25.00
2022-09-29T04:28:57.350Z,23.57
2022-09-29T04:31:27.379Z,24.30
2022-09-29T04:33:57.485Z,29.30
2022-09-29T04:36:25.665Z,26.27
2022-09-29T04:38:54.411Z,32.60
2022-09-29T04:41:22.552Z,25.80
2022-09-29T04:43:50.715Z,27.30
2022-09-29T04:46:18.879Z,26.43
2022-09-29T04:48:48.471Z,24.37
2022-09-29T04:51:16.625Z,27.37
2022-09-29T04:53:44.913Z,42.77
2022-09-29T04:56:13.105Z,34.57
2022-09-29T04:58:41.211Z,34.60
2022-09-29T05:01:12.901Z,39.97
2022-09-29T05:03:41.700Z,27.70
2022-09-29T05:06:11.725Z,26.53
2022-09-29T05:08:39.908Z,33.27
2022-09-29T05:11:09.643Z,50.67
2022-09-29T05:13:38.808Z,32.67
2022-09-29T05:16:07.928Z,28.23
2022-09-29T05:18:36.303Z,31.17
2022-09-29T05:23:56.440Z,26.47
2022-09-29T05:26:24.646Z,24.90
2022-09-29T05:28:52.897Z,23.37
2022-09-29T05:31:21.210Z,24.20
2022-09-29T05:33:49.761Z,33.17
2022-09-29T05:36:17.984Z,26.83
2022-09-29T05:38:46.088Z,24.67
2022-09-29T05:41:22.497Z,32.93
2022-09-29T05:43:51.175Z,35.00
2022-09-29T05:46:19.445Z,23.07
2022-09-29T05:48:48.592Z,25.73
2022-09-29T05:51:22.846Z,25.67
2022-09-29T05:53:52.428Z,26.27
2022-09-29T05:56:24.127Z,28.50
2022-09-29T05:58:53.155Z,28.10
2022-09-29T06:01:23.972Z,28.50
2022-09-29T06:03:54.726Z,29.80
2022-09-29T06:06:25.458Z,29.17
2022-09-29T06:08:54.793Z,31.30
2022-09-29T06:11:27.349Z,29.47
2022-09-29T06:13:56.483Z,37.27
2022-09-29T06:16:27.513Z,37.63
2022-09-29T06:18:56.543Z,38.60
2022-09-29T06:21:26.339Z,42.73
2022-09-29T06:23:56.546Z,36.03
2022-09-29T06:26:28.269Z,38.20
2022-09-29T06:28:58.514Z,42.30
2022-09-29T06:31:29.902Z,37.00
2022-09-29T06:34:00.195Z,37.73
2022-09-29T06:36:49.626Z,36.63
2022-09-29T06:39:18.567Z,38.27
2022-09-29T06:41:53.413Z,36.47
2022-09-29T06:44:21.895Z,36.47
2022-09-29T06:46:51.120Z,36.23
2022-09-29T06:49:20.516Z,39.23
2022-09-29T06:51:48.833Z,36.33
2022-09-29T06:54:20.303Z,41.13
2022-09-29T06:56:51.081Z,38.20
2022-09-29T06:59:19.733Z,38.73
2022-09-29T07:01:50.768Z,38.87
2022-09-29T07:04:24.291Z,36.63
2022-09-29T07:06:53.029Z,42.47
2022-09-29T07:09:23.399Z,44.13
2022-09-29T07:11:53.653Z,44.97
2022-09-29T07:14:25.411Z,51.57
2022-09-29T07:16:54.019Z,48.47
2022-09-29T07:19:22.547Z,52.17
2022-09-29T07:21:51.613Z,51.67
2022-09-29T07:24:19.859Z,56.00
2022-09-29T07:26:47.981Z,47.57
2022-09-29T07:29:17.740Z,50.93
2022-09-29T07:31:52.247Z,50.00
2022-09-29T07:34:21.190Z,52.67
2022-09-29T07:36:49.605Z,50.23
2022-09-29T07:39:17.992Z,49.10
2022-09-29T07:41:46.202Z,46.20
2022-09-29T07:44:14.391Z,46.00
2022-09-29T07:46:43.905Z,46.07
2022-09-29T07:49:12.186Z,42.40
2022-09-29T07:51:40.347Z,40.53
2022-09-29T07:54:08.796Z,38.03
2022-09-29T07:56:37.087Z,39.47
2022-09-29T07:59:05.530Z,34.37
2022-09-29T08:01:35.011Z,35.20
2022-09-29T08:04:04.653Z,37.00
2022-09-29T08:06:33.187Z,32.63
2022-09-29T08:09:04.851Z,33.50
2022-09-29T08:11:35.158Z,35.53
2022-09-29T08:14:03.526Z,31.77
2022-09-29T08:16:32.566Z,32.00
2022-09-29T08:19:01.186Z,34.47
2022-09-29T08:21:31.877Z,33.90
2022-09-29T08:24:02.359Z,30.20
2022-09-29T08:26:41.420Z,31.23
2022-09-29T08:29:15.603Z,30.90
2022-09-29T08:31:45.176Z,31.97
2022-09-29T08:34:14.657Z,26.67
2022-09-29T08:36:44.616Z,28.20
2022-09-29T08:39:15.409Z,28.10
2022-09-29T08:41:52.560Z,25.17
2022-09-29T08:44:38.515Z,23.63
2022-09-29T08:47:16.741Z,26.00
2022-09-29T08:49:50.958Z,21.77
2022-09-29T08:52:25.571Z,22.80
2022-09-29T08:55:12.325Z,21.17
2022-09-29T08:57:46.787Z,21.50
2022-09-29T09:00:18.647Z,18.67
2022-09-29T09:03:07.192Z,20.03
2022-09-29T09:06:08.277Z,16.90
2022-09-29T09:08:59.908Z,18.37
2022-09-29T09:11:46.625Z,14.63
2022-09-29T09:14:30.536Z,12.80
2022-09-29T09:17:12.078Z,14.63
2022-09-29T09:20:05.635Z,12.67
2022-09-29T09:22:43.561Z,11.17
2022-09-29T09:25:25.243Z,12.03
2022-09-29T09:28:07.427Z,13.00
2022-09-29T09:30:43.062Z,7.83
2022-09-29T09:33:31.163Z,9.57
2022-09-29T09:36:04.926Z,7.17
2022-09-29T09:38:47.205Z,6.63
2022-09-29T09:41:21.515Z,6.20
2022-09-29T09:43:53.896Z,6.50
2022-09-29T09:46:31.020Z,5.23
2022-09-29T09:49:07.470Z,5.70
2022-09-29T09:51:48.022Z,6.00
2022-09-29T09:54:29.133Z,5.07
2022-09-29T09:57:14.140Z,6.17
2022-09-29T09:59:58.090Z,6.27
2022-09-29T10:02:26.369Z,4.90
2022-09-29T10:04:55.661Z,4.63
2022-09-29T10:07:26.746Z,5.23
2022-09-29T10:09:55.402Z,4.67
2022-09-29T10:12:26.526Z,5.30
2022-09-29T10:15:02.136Z,4.43
2022-09-29T10:17:40.391Z,3.80
2022-09-29T10:20:10.367Z,4.13
2022-09-29T10:22:39.094Z,4.07
2022-09-29T10:25:19.024Z,2.90
2022-09-29T10:27:52.579Z,2.77
2022-09-29T10:30:24.610Z,3.73
2022-09-29T10:32:58.588Z,3.30
2022-09-29T10:35:33.723Z,2.80
2022-09-29T10:38:03.863Z,2.20
2022-09-29T10:40:32.114Z,4.73
2022-09-29T10:43:26.833Z,2.07
2022-09-29T10:45:58.680Z,3.03
2022-09-29T10:48:28.516Z,2.40
2022-09-29T10:53:38.674Z,2.77
2022-09-29T10:56:16.202Z,1.83
2022-09-29T10:59:00.274Z,1.80
2022-09-29T11:01:34.415Z,2.90
2022-09-29T11:04:08.207Z,2.60
2022-09-29T11:06:43.582Z,4.10
2022-09-29T11:09:31.867Z,2.53
2022-09-29T11:12:05.062Z,2.80
2022-09-29T11:14:44.218Z,2.10
2022-09-29T11:17:25.612Z,1.77
2022-09-29T11:19:56.342Z,3.40
2022-09-29T11:22:49.146Z,1.90
2022-09-29T11:25:45.185Z,1.47
2022-09-29T11:28:49.140Z,2.70
2022-09-29T11:31:36.944Z,3.20
2022-09-29T11:34:26.464Z,1.43
2022-09-29T11:37:04.295Z,2.13
2022-09-29T11:39:45.763Z,1.73
2022-09-29T11:42:40.968Z,1.43
2022-09-29T11:45:15.374Z,1.30
2022-09-29T11:48:29.982Z,2.90
2022-09-29T11:51:06.349Z,1.50
2022-09-29T11:53:56.247Z,1.97
2022-09-29T11:56:35.878Z,2.33
2022-09-29T11:59:38.175Z,1.37
2022-09-29T12:02:44.007Z,1.87
2022-09-29T12:05:20.544Z,1.50
2022-09-29T12:08:02.068Z,1.80
2022-09-29T12:10:54.542Z,1.63
2022-09-29T12:13:36.965Z,0.70
2022-09-29T12:16:12.417Z,1.30
2022-09-29T12:18:48.909Z,1.93
2022-09-29T12:21:30.283Z,1.37
2022-09-29T12:24:00.356Z,0.80
2022-09-29T12:26:28.674Z,0.60
2022-09-29T12:29:02.696Z,2.90
2022-09-29T12:31:36.821Z,1.10
2022-09-29T12:34:11.740Z,1.90
2022-09-29T12:36:53.723Z,0.93
2022-09-29T12:39:36.754Z,1.10
2022-09-29T12:42:22.612Z,3.83
2022-09-29T12:44:56.159Z,1.20
2022-09-29T12:47:40.305Z,0.80
2022-09-29T12:50:17.827Z,1.05
2022-09-29T12:52:55.274Z,1.23
2022-09-29T12:55:33.159Z,1.13
2022-09-29T12:58:08.139Z,1.70
2022-09-29T13:00:39.240Z,1.97
2022-09-29T13:03:51.103Z,1.17
2022-09-29T13:06:56.213Z,1.27
2022-09-29T13:10:11.163Z,0.73
2022-09-29T13:13:11.953Z,1.40
2022-09-29T13:15:59.887Z,0.80
2022-09-29T13:19:39.472Z,0.80
2022-09-29T13:22:22.179Z,1.13
2022-09-29T13:25:00.154Z,1.00
2022-09-29T13:27:34.077Z,0.70
2022-09-29T13:30:07.764Z,0.70
2022-09-29T13:32:42.144Z,1.23
2022-09-29T13:35:18.235Z,2.27
2022-09-29T13:37:51.477Z,1.23
2022-09-29T13:40:24.614Z,1.17
2022-09-29T13:42:56.597Z,1.00
2022-09-29T13:45:45.045Z,1.03
2022-09-29T13:48:39.368Z,1.30
2022-09-29T13:51:50.554Z,0.90
2022-09-29T13:54:41.159Z,0.80
2022-09-29T13:57:30.329Z,1.63
2022-09-29T14:00:24.781Z,2.17
2022-09-29T14:03:26.674Z,1.23
2022-09-29T14:06:39.712Z,1.20
2022-09-29T14:09:09.849Z,1.77
2022-09-29T14:11:42.193Z,2.60
2022-09-29T14:14:18.300Z,1.70
2022-09-29T14:16:54.922Z,1.43
2022-09-29T14:19:50.204Z,1.10
2022-09-29T14:23:11.009Z,3.10
2022-09-29T14:25:53.849Z,2.27
2022-09-29T14:28:31.522Z,3.17
2022-09-29T14:31:02.885Z,3.43
2022-09-29T14:33:38.369Z,3.13
2022-09-29T14:36:11.705Z,1.40
2022-09-29T14:38:48.365Z,2.17
2022-09-29T14:41:31.982Z,3.30
2022-09-29T14:44:06.538Z,1.70
2022-09-29T14:47:45.763Z,2.63
2022-09-29T14:51:06.049Z,1.40
2022-09-29T14:53:59.528Z,1.43
2022-09-29T14:56:46.813Z,1.43
2022-09-29T14:59:29.596Z,1.27
2022-09-29T15:02:19.668Z,1.97
2022-09-29T15:04:49.413Z,1.50
2022-09-29T15:07:21.994Z,0.70
2022-09-29T15:09:52.695Z,1.40
2022-09-29T15:12:27.452Z,1.80
2022-09-29T15:14:58.047Z,0.60
2022-09-29T15:17:46.417Z,0.70
2022-09-29T15:20:23.504Z,1.40
2022-09-29T15:23:35.204Z,0.80
2022-09-29T15:26:03.428Z,1.87
2022-09-29T15:28:36.362Z,0.53
2022-09-29T15:31:10.065Z,1.30
2022-09-29T15:33:41.108Z,0.57
2022-09-29T15:36:19.168Z,1.00
2022-09-29T15:38:52.884Z,1.77
2022-09-29T15:41:27.602Z,0.73
2022-09-29T15:44:02.310Z,1.43
2022-09-29T15:46:39.539Z,12.57
2022-09-29T15:49:15.616Z,6.23
2022-09-29T15:51:47.196Z,5.17
2022-09-29T15:54:16.991Z,1.43
2022-09-29T15:57:05.618Z,1.30
2022-09-29T15:59:50.142Z,1.93
2022-09-29T16:02:27.029Z,1.43
2022-09-29T16:04:58.921Z,1.40
2022-09-29T16:07:30.470Z,3.70
2022-09-29T16:10:07.587Z,2.43
2022-09-29T16:12:40.669Z,2.60
2022-09-29T16:15:12.772Z,1.63
2022-09-29T16:17:41.856Z,4.27
2022-09-29T16:20:18.646Z,2.10
2022-09-29T16:22:49.354Z,4.67
2022-09-29T16:25:28.526Z,2.67
2022-09-29T16:27:58.269Z,1.73
2022-09-29T16:30:29.955Z,3.17
2022-09-29T16:33:05.400Z,10.23
2022-09-29T16:35:50.660Z,4.50
2022-09-29T16:38:33.191Z,2.87
2022-09-29T16:41:13.770Z,2.30
2022-09-29T16:43:42.946Z,3.60
2022-09-29T16:46:18.235Z,4.30
2022-09-29T16:48:47.479Z,2.90
2022-09-29T16:54:06.546Z,3.87
2022-09-29T16:56:36.713Z,4.53
2022-09-29T16:59:12.375Z,3.50
2022-09-29T17:01:41.497Z,3.47
2022-09-29T17:04:10.235Z,2.80
2022-09-29T17:06:39.145Z,3.30
2022-09-29T17:09:07.697Z,4.53
2022-09-29T17:11:39.442Z,3.33
2022-09-29T17:14:11.258Z,3.47
2022-09-29T17:16:41.385Z,3.67
2022-09-29T17:19:12.489Z,2.63
2022-09-29T17:21:40.704Z,2.97
2022-09-29T17:24:09.012Z,2.97
2022-09-29T17:26:59.585Z,3.10
2022-09-29T17:29:27.779Z,3.27
2022-09-29T17:31:56.062Z,3.17
2022-09-29T17:34:28.867Z,5.83
2022-09-29T17:37:01.710Z,6.77
2022-09-29T17:39:30.132Z,8.23
2022-09-29T17:42:00.868Z,5.67
2022-09-29T17:44:29.348Z,7.03
2022-09-29T17:47:11.295Z,6.20
2022-09-29T17:49:50.809Z,5.60
2022-09-29T17:52:19.857Z,6.00
2022-09-29T17:54:48.553Z,5.00
2022-09-29T17:57:27.324Z,4.37
2022-09-29T17:59:58.269Z,5.00
2022-09-29T18:02:26.547Z,4.50
2022-09-29T18:04:54.760Z,4.13
2022-09-29T18:07:22.922Z,5.77
2022-09-29T18:09:51.122Z,6.40
2022-09-29T18:12:19.160Z,5.70
2022-09-29T18:14:49.279Z,6.33
2022-09-29T18:17:17.427Z,6.40
2022-09-29T18:19:46.211Z,11.87
2022-09-29T18:22:14.282Z,7.13
2022-09-29T18:24:42.368Z,7.80
2022-09-29T18:27:14.719Z,7.93
2022-09-29T18:29:42.898Z,7.60
2022-09-29T18:32:19.532Z,7.57
2022-09-29T18:34:48.370Z,8.43
2022-09-29T18:37:16.744Z,7.93
2022-09-29T18:39:45.857Z,8.23
2022-09-29T18:42:13.960Z,9.80
2022-09-29T18:44:42.087Z,8.63
2022-09-29T18:47:13.200Z,7.70
2022-09-29T18:49:41.491Z,6.53
2022-09-29T18:52:10.166Z,6.47
2022-09-29T18:54:38.278Z,7.27
2022-09-29T18:57:07.139Z,9.33
2022-09-29T18:59:36.068Z,8.07
2022-09-29T19:02:04.293Z,7.97
2022-09-29T19:04:34.094Z,9.57
2022-09-29T19:07:05.268Z,12.77
2022-09-29T19:09:33.451Z,9.43
2022-09-29T19:12:02.230Z,10.37
2022-09-29T19:14:34.137Z,11.67
2022-09-29T19:17:02.626Z,9.43
2022-09-29T19:19:30.813Z,11.07
2022-09-29T19:22:00.279Z,9.87
2022-09-29T19:24:28.411Z,10.17
2022-09-29T19:26:56.586Z,9.70
2022-09-29T19:29:24.691Z,8.70
2022-09-29T19:31:52.829Z,9.17
2022-09-29T19:34:20.958Z,11.67
2022-09-29T19:36:49.141Z,9.97
2022-09-29T19:39:18.846Z,9.50
2022-09-29T19:41:47.147Z,8.97
2022-09-29T19:44:15.314Z,10.00
2022-09-29T19:46:43.498Z,15.13
2022-09-29T19:49:11.704Z,9.40
2022-09-29T19:51:52.936Z,9.30
2022-09-29T19:54:24.934Z,11.43
2022-09-29T19:56:57.150Z,24.40
2022-09-29T19:59:29.011Z,8.97
2022-09-29T20:01:57.952Z,17.23
2022-09-29T20:04:30.874Z,26.33
2022-09-29T20:06:59.460Z,17.83
2022-09-29T20:09:29.200Z,18.03
2022-09-29T20:11:58.186Z,17.73
2022-09-29T20:14:28.229Z,11.57
2022-09-29T20:16:58.529Z,11.03
2022-09-29T20:19:28.037Z,12.80
2022-09-29T20:21:58.110Z,9.87
2022-09-29T20:24:27.079Z,10.07
2022-09-29T20:26:57.844Z,9.43
2022-09-29T20:29:27.141Z,8.83
2022-09-29T20:31:55.430Z,9.43
2022-09-29T20:34:24.048Z,9.57
2022-09-29T20:36:54.733Z,9.60
2022-09-29T20:39:25.282Z,7.80
2022-09-29T20:41:54.592Z,8.00
2022-09-29T20:44:25.585Z,8.87
2022-09-29T20:46:54.647Z,6.70
2022-09-29T20:49:23.139Z,8.13
2022-09-29T20:51:51.642Z,7.40
2022-09-29T20:54:20.603Z,8.40
2022-09-29T20:56:50.952Z,8.90
2022-09-29T20:59:21.186Z,8.50
2022-09-29T21:01:52.385Z,8.13
2022-09-29T21:04:22.417Z,10.10
2022-09-29T21:06:52.225Z,9.67
2022-09-29T21:09:23.484Z,8.27
2022-09-29T21:11:53.761Z,7.87
2022-09-29T21:14:24.396Z,8.13
2022-09-29T21:16:54.522Z,8.63
2022-09-29T21:19:26.597Z,8.53
2022-09-29T21:21:55.680Z,7.80
2022-09-29T21:24:24.300Z,9.20
2022-09-29T21:26:52.682Z,13.90
2022-09-29T21:29:22.216Z,10.93
2022-09-29T21:31:50.520Z,9.10
2022-09-29T21:34:21.174Z,8.80
2022-09-29T21:36:49.689Z,9.40
2022-09-29T21:39:18.131Z,10.17
2022-09-29T21:41:47.295Z,8.60
2022-09-29T21:44:17.415Z,10.10
2022-09-29T21:46:46.803Z,9.67
2022-09-29T21:49:18.003Z,11.30
2022-09-29T21:51:50.198Z,9.80
2022-09-29T21:54:20.555Z,10.67
2022-09-29T21:56:49.563Z,10.30
2022-09-29T21:59:21.536Z,9.87
2022-09-29T22:01:51.620Z,10.40
2022-09-29T22:04:20.377Z,10.47
2022-09-29T22:06:50.076Z,10.73
2022-09-29T22:09:20.918Z,11.53
2022-09-29T22:11:50.315Z,10.90
2022-09-29T22:14:19.508Z,11.30
2022-09-29T22:16:47.894Z,10.80
2022-09-29T22:19:24.721Z,11.73
2022-09-29T22:21:55.421Z,11.17
2022-09-29T22:24:26.505Z,10.80
2022-09-29T22:26:55.117Z,10.97
2022-09-29T22:29:23.542Z,11.90
2022-09-29T22:31:51.911Z,10.87
2022-09-29T22:34:20.078Z,12.17
2022-09-29T22:36:48.349Z,11.73
2022-09-29T22:39:17.879Z,13.20
2022-09-29T22:41:46.156Z,14.30
2022-09-29T22:44:14.251Z,11.87
2022-09-29T22:46:42.704Z,13.40
2022-09-29T22:49:11.081Z,12.03
2022-09-29T22:51:39.315Z,12.67
2022-09-29T22:54:07.901Z,12.37
2022-09-29T22:56:37.353Z,13.07
2022-09-29T22:59:05.857Z,12.33
2022-09-29T23:01:34.725Z,12.37
2022-09-29T23:04:04.003Z,13.17
2022-09-29T23:06:32.511Z,12.83
2022-09-29T23:09:00.759Z,13.20
2022-09-29T23:11:30.114Z,13.50
2022-09-29T23:14:00.739Z,12.80
2022-09-29T23:16:29.139Z,13.70
2022-09-29T23:18:58.967Z,13.77
2022-09-29T23:21:27.873Z,14.87
2022-09-29T23:23:59.462Z,14.03
2022-09-29T23:26:30.670Z,14.63
2022-09-29T23:29:01.241Z,15.03
2022-09-29T23:31:29.540Z,13.83
2022-09-29T23:33:59.474Z,16.03
2022-09-29T23:36:30.091Z,14.00
2022-09-29T23:39:09.816Z,14.13
2022-09-29T23:41:39.583Z,13.30
2022-09-29T23:44:10.673Z,14.73
2022-09-29T23:46:40.635Z,18.63
2022-09-29T23:49:11.333Z,14.70
2022-09-29T23:51:42.381Z,13.53
2022-09-29T23:54:13.358Z,13.30
2022-09-29T23:56:41.755Z,13.23
2022-09-29T23:59:11.867Z,13.97
